createdAt,value
2023-12-16T00:02:08.163Z,3.00
2023-12-16T00:07:12.509Z,3.04
2023-12-16T00:12:17.067Z,3.04
2023-12-16T00:17:20.532Z,3.00
2023-12-16T00:22:23.907Z,3.01
2023-12-16T00:27:28.458Z,3.04
2023-12-16T00:32:31.372Z,3.04
2023-12-16T00:37:34.300Z,3.02
2023-12-16T00:42:38.744Z,3.09
2023-12-16T00:47:42.013Z,2.98
2023-12-16T00:52:45.216Z,2.83
2023-12-16T00:57:49.642Z,2.84
2023-12-16T01:02:52.645Z,2.67
2023-12-16T01:07:55.546Z,2.77
2023-12-16T01:12:59.916Z,2.74
2023-12-16T01:18:03.005Z,2.76
2023-12-16T01:23:05.944Z,2.72
2023-12-16T01:28:10.268Z,2.78
2023-12-16T01:33:14.272Z,2.83
2023-12-16T01:38:17.319Z,2.83
2023-12-16T01:43:21.772Z,2.88
2023-12-16T01:48:25.103Z,2.94
2023-12-16T01:53:29.457Z,2.90
2023-12-16T01:58:33.727Z,2.85
2023-12-16T02:03:38.622Z,2.85
2023-12-16T02:08:41.860Z,2.76
2023-12-16T02:13:46.213Z,2.79
2023-12-16T02:18:51.083Z,2.74
2023-12-16T02:23:55.625Z,2.75
2023-12-16T02:28:58.569Z,2.64
2023-12-16T02:34:01.573Z,2.65
2023-12-16T02:39:05.969Z,2.55
2023-12-16T02:44:09.564Z,2.58
2023-12-16T02:49:12.574Z,2.54
2023-12-16T02:54:16.984Z,2.49
2023-12-16T02:59:19.899Z,2.56
2023-12-16T03:04:22.958Z,2.48
2023-12-16T03:09:27.286Z,2.42
2023-12-16T03:14:30.446Z,2.42
2023-12-16T03:19:33.485Z,2.49
2023-12-16T03:24:37.898Z,2.43
2023-12-16T03:29:40.805Z,2.30
2023-12-16T03:34:43.791Z,2.30
2023-12-16T03:39:48.212Z,2.35
2023-12-16T03:44:51.161Z,2.37
2023-12-16T03:49:54.167Z,2.38
2023-12-16T03:54:58.516Z,2.39
2023-12-16T04:00:01.479Z,2.31
2023-12-16T04:05:04.855Z,2.30
2023-12-16T04:10:11.361Z,2.27
2023-12-16T04:15:14.319Z,2.38
2023-12-16T04:20:17.531Z,2.40
2023-12-16T04:25:21.883Z,2.36
2023-12-16T04:30:24.887Z,2.39
2023-12-16T04:35:28.098Z,2.39
2023-12-16T04:40:32.697Z,2.40
2023-12-16T04:45:36.970Z,2.40
2023-12-16T04:50:39.947Z,2.39
2023-12-16T04:55:44.435Z,2.36
2023-12-16T05:00:47.460Z,2.34
2023-12-16T05:05:50.432Z,2.38
2023-12-16T05:10:54.761Z,2.40
2023-12-16T05:15:57.634Z,2.44
2023-12-16T05:21:00.568Z,2.46
2023-12-16T05:26:05.035Z,2.44
2023-12-16T05:31:08.177Z,2.51
2023-12-16T05:36:11.814Z,2.52
2023-12-16T05:41:16.411Z,2.52
2023-12-16T05:46:19.385Z,2.56
2023-12-16T05:51:22.303Z,2.62
2023-12-16T05:56:26.598Z,2.63
2023-12-16T06:01:29.595Z,2.59
2023-12-16T06:06:32.594Z,2.67
2023-12-16T06:11:36.972Z,2.68
2023-12-16T06:16:40.001Z,2.70
2023-12-16T06:21:42.948Z,2.69
2023-12-16T06:26:48.490Z,2.62
2023-12-16T06:31:51.503Z,2.68
2023-12-16T06:36:54.395Z,2.69
2023-12-16T06:41:58.690Z,2.72
2023-12-16T06:47:01.611Z,2.72
2023-12-16T06:52:04.853Z,2.78
2023-12-16T06:57:09.193Z,2.78
2023-12-16T07:02:12.080Z,2.83
2023-12-16T07:07:15.033Z,2.90
2023-12-16T07:12:19.876Z,2.83
2023-12-16T07:17:22.790Z,2.89
2023-12-16T07:22:25.739Z,2.97
2023-12-16T07:27:30.106Z,3.03
2023-12-16T07:32:33.163Z,3.11
2023-12-16T07:37:36.669Z,3.26
2023-12-16T07:42:42.791Z,3.27
2023-12-16T07:47:45.966Z,3.34
2023-12-16T07:52:49.398Z,3.43
2023-12-16T07:57:54.150Z,3.47
2023-12-16T08:02:57.157Z,3.50
2023-12-16T08:08:00.207Z,3.76
2023-12-16T08:13:04.592Z,3.93
2023-12-16T08:18:09.129Z,4.54
2023-12-16T08:23:12.369Z,4.79
2023-12-16T08:28:17.785Z,4.57
2023-12-16T08:33:20.819Z,4.44
2023-12-16T08:38:23.836Z,4.58
2023-12-16T08:43:29.653Z,4.74
2023-12-16T08:48:33.086Z,4.96
2023-12-16T08:53:35.962Z,4.79
2023-12-16T08:58:40.455Z,4.80
2023-12-16T09:03:44.925Z,4.96
2023-12-16T09:08:47.942Z,4.94
2023-12-16T09:13:52.172Z,5.04
2023-12-16T09:18:55.180Z,5.19
2023-12-16T09:23:58.124Z,5.10
2023-12-16T09:29:03.090Z,4.97
2023-12-16T09:34:06.235Z,5.10
2023-12-16T09:39:11.290Z,5.25
2023-12-16T09:44:20.123Z,5.28
2023-12-16T09:49:25.596Z,5.36
2023-12-16T09:54:28.741Z,5.48
2023-12-16T09:59:34.128Z,5.56
2023-12-16T10:04:38.052Z,5.74
2023-12-16T10:09:41.022Z,5.84
2023-12-16T10:14:49.084Z,5.89
2023-12-16T10:19:52.018Z,6.09
2023-12-16T10:24:55.495Z,6.19
2023-12-16T10:30:07.190Z,6.38
2023-12-16T10:35:12.972Z,6.57
2023-12-16T10:40:17.155Z,6.67
2023-12-16T10:45:21.924Z,6.74
2023-12-16T10:50:27.020Z,6.79
2023-12-16T10:55:33.224Z,7.07
2023-12-16T11:00:41.533Z,7.14
2023-12-16T11:05:50.073Z,7.27
2023-12-16T11:10:54.823Z,7.41
2023-12-16T11:16:05.108Z,7.61
2023-12-16T11:21:14.204Z,7.75
2023-12-16T11:26:18.512Z,7.80
2023-12-16T11:31:23.166Z,7.87
2023-12-16T11:37:03.941Z,8.08
2023-12-16T11:42:08.005Z,8.21
2023-12-16T11:47:20.004Z,8.34
2023-12-16T11:52:23.947Z,8.48
2023-12-16T11:57:27.829Z,8.54
2023-12-16T12:02:32.107Z,8.79
2023-12-16T12:07:35.453Z,9.01
2023-12-16T12:12:38.726Z,9.21
2023-12-16T12:17:43.188Z,9.69
2023-12-16T12:22:46.440Z,10.33
2023-12-16T12:27:50.129Z,11.52
2023-12-16T12:32:54.621Z,12.45
2023-12-16T12:37:58.385Z,13.18
2023-12-16T12:43:01.724Z,13.83
2023-12-16T12:48:14.033Z,14.13
2023-12-16T12:53:23.150Z,14.30
2023-12-16T12:58:31.179Z,14.24
2023-12-16T13:03:36.613Z,14.47
2023-12-16T13:08:39.686Z,14.43
2023-12-16T13:13:42.661Z,14.06
2023-12-16T13:18:47.511Z,14.05
2023-12-16T18:48:38.391Z,4.25
2023-12-16T18:53:41.626Z,4.22
2023-12-16T18:58:44.636Z,4.18
2023-12-16T19:03:49.676Z,4.12
2023-12-16T19:08:52.818Z,4.08
2023-12-16T19:13:55.898Z,3.85
2023-12-16T19:19:00.657Z,3.82
2023-12-16T19:24:03.751Z,3.70
2023-12-16T19:29:06.873Z,3.77
2023-12-16T19:34:11.298Z,3.70
2023-12-16T19:39:19.856Z,3.65
2023-12-16T19:44:24.101Z,3.55
2023-12-16T19:49:28.850Z,3.45
2023-12-16T19:54:32.299Z,3.41
2023-12-16T19:59:38.022Z,3.33
2023-12-16T20:04:44.104Z,3.30
2023-12-16T20:09:47.396Z,3.22
2023-12-16T20:14:50.510Z,3.19
2023-12-16T20:19:55.014Z,3.16
2023-12-16T20:24:58.119Z,3.12
2023-12-16T20:30:02.198Z,3.03
2023-12-16T20:35:08.288Z,3.02
2023-12-16T20:40:28.883Z,3.05
2023-12-16T20:45:32.621Z,3.04
2023-12-16T20:50:37.275Z,3.03
2023-12-16T20:55:40.541Z,2.99
2023-12-16T21:00:44.139Z,2.92
2023-12-16T21:05:48.623Z,2.87
2023-12-16T21:10:51.691Z,2.89
2023-12-16T21:15:55.388Z,2.86
2023-12-16T21:20:59.670Z,2.73
2023-12-16T21:26:02.637Z,2.77
2023-12-16T21:31:06.992Z,2.78
2023-12-16T21:36:11.757Z,2.75
2023-12-16T21:41:14.714Z,2.72
2023-12-16T21:46:17.684Z,2.65
2023-12-16T21:51:22.716Z,2.61
2023-12-16T21:56:27.146Z,2.54
2023-12-16T22:01:30.613Z,2.44
2023-12-16T22:06:35.037Z,2.54
2023-12-16T22:11:38.073Z,2.57
2023-12-16T22:16:41.045Z,2.55
2023-12-16T22:21:45.404Z,2.52
2023-12-16T22:26:50.546Z,2.49
2023-12-16T22:31:54.618Z,2.46
2023-12-16T22:36:58.993Z,2.46
2023-12-16T22:42:01.933Z,2.43
2023-12-16T22:47:05.375Z,2.37
2023-12-16T22:52:09.691Z,2.37
2023-12-16T22:57:12.794Z,2.34
2023-12-16T23:02:15.940Z,2.29
2023-12-16T23:07:20.667Z,2.32
2023-12-16T23:12:23.607Z,2.40
2023-12-16T23:17:26.687Z,2.27
2023-12-16T23:22:31.091Z,2.14
2023-12-16T23:27:34.033Z,2.15
2023-12-16T23:32:37.001Z,2.18
2023-12-16T23:37:41.537Z,2.20
2023-12-16T23:42:44.687Z,2.27
2023-12-16T23:47:47.798Z,2.29
2023-12-16T23:52:52.206Z,2.21
2023-12-16T23:57:55.147Z,2.14
